sensor_id;sensor_type;location;lat;lon;timestamp;P1;durP1;ratioP1;P2;durP2;ratioP2
42198;SDS011;27868;45.184;5.786;2022-08-19T00:02:03;4.05;;;1.90;;
42198;SDS011;27868;45.184;5.786;2022-08-19T00:04:49;2.72;;;1.65;;
42198;SDS011;27868;45.184;5.786;2022-08-19T00:07:36;7.00;;;2.10;;
42198;SDS011;27868;45.184;5.786;2022-08-19T00:10:21;4.35;;;1.90;;
42198;SDS011;27868;45.184;5.786;2022-08-19T00:13:08;4.63;;;1.70;;
42198;SDS011;27868;45.184;5.786;2022-08-19T00:15:53;3.75;;;1.92;;
42198;SDS011;27868;45.184;5.786;2022-08-19T00:18:38;6.22;;;2.13;;
42198;SDS011;27868;45.184;5.786;2022-08-19T00:21:24;5.45;;;2.10;;
42198;SDS011;27868;45.184;5.786;2022-08-19T00:24:11;4.65;;;1.98;;
42198;SDS011;27868;45.184;5.786;2022-08-19T00:26:58;3.95;;;1.90;;
42198;SDS011;27868;45.184;5.786;2022-08-19T00:29:43;3.88;;;2.25;;
42198;SDS011;27868;45.184;5.786;2022-08-19T00:32:28;3.47;;;2.00;;
42198;SDS011;27868;45.184;5.786;2022-08-19T00:35:13;3.22;;;2.30;;
42198;SDS011;27868;45.184;5.786;2022-08-19T00:37:58;3.42;;;2.25;;
42198;SDS011;27868;45.184;5.786;2022-08-19T00:40:43;4.93;;;2.47;;
42198;SDS011;27868;45.184;5.786;2022-08-19T00:43:30;6.72;;;2.75;;
42198;SDS011;27868;45.184;5.786;2022-08-19T00:46:15;4.63;;;1.80;;
42198;SDS011;27868;45.184;5.786;2022-08-19T00:49:00;4.88;;;1.95;;
42198;SDS011;27868;45.184;5.786;2022-08-19T00:51:47;3.80;;;2.17;;
42198;SDS011;27868;45.184;5.786;2022-08-19T00:54:36;2.63;;;1.48;;
42198;SDS011;27868;45.184;5.786;2022-08-19T00:57:28;4.32;;;1.80;;
42198;SDS011;27868;45.184;5.786;2022-08-19T01:00:22;3.35;;;1.80;;
42198;SDS011;27868;45.184;5.786;2022-08-19T01:03:10;3.55;;;1.60;;
42198;SDS011;27868;45.184;5.786;2022-08-19T01:05:56;7.47;;;1.90;;
42198;SDS011;27868;45.184;5.786;2022-08-19T01:08:41;2.35;;;1.75;;
42198;SDS011;27868;45.184;5.786;2022-08-19T01:11:27;4.22;;;2.20;;
42198;SDS011;27868;45.184;5.786;2022-08-19T01:14:13;3.50;;;1.70;;
42198;SDS011;27868;45.184;5.786;2022-08-19T01:16:58;3.08;;;1.80;;
42198;SDS011;27868;45.184;5.786;2022-08-19T01:19:43;5.15;;;1.92;;
42198;SDS011;27868;45.184;5.786;2022-08-19T01:22:31;3.67;;;1.70;;
42198;SDS011;27868;45.184;5.786;2022-08-19T01:25:22;6.05;;;2.05;;
42198;SDS011;27868;45.184;5.786;2022-08-19T01:28:18;3.28;;;1.70;;
42198;SDS011;27868;45.184;5.786;2022-08-19T01:31:06;2.60;;;1.58;;
42198;SDS011;27868;45.184;5.786;2022-08-19T01:33:57;4.75;;;1.60;;
42198;SDS011;27868;45.184;5.786;2022-08-19T01:36:44;4.95;;;1.60;;
42198;SDS011;27868;45.184;5.786;2022-08-19T01:39:30;6.07;;;1.70;;
42198;SDS011;27868;45.184;5.786;2022-08-19T01:42:15;3.38;;;1.60;;
42198;SDS011;27868;45.184;5.786;2022-08-19T01:45:00;2.70;;;1.67;;
42198;SDS011;27868;45.184;5.786;2022-08-19T01:47:45;4.75;;;1.80;;
42198;SDS011;27868;45.184;5.786;2022-08-19T01:50:31;4.82;;;2.15;;
42198;SDS011;27868;45.184;5.786;2022-08-19T01:53:17;4.10;;;1.73;;
42198;SDS011;27868;45.184;5.786;2022-08-19T01:56:02;3.20;;;1.42;;
42198;SDS011;27868;45.184;5.786;2022-08-19T01:58:53;2.75;;;1.48;;
42198;SDS011;27868;45.184;5.786;2022-08-19T02:01:40;3.17;;;1.80;;
42198;SDS011;27868;45.184;5.786;2022-08-19T02:04:25;3.35;;;1.70;;
42198;SDS011;27868;45.184;5.786;2022-08-19T02:07:11;3.75;;;1.77;;
42198;SDS011;27868;45.184;5.786;2022-08-19T02:09:56;4.75;;;1.88;;
42198;SDS011;27868;45.184;5.786;2022-08-19T02:12:41;2.20;;;1.65;;
42198;SDS011;27868;45.184;5.786;2022-08-19T02:15:26;4.22;;;1.83;;
42198;SDS011;27868;45.184;5.786;2022-08-19T02:18:11;3.67;;;1.70;;
42198;SDS011;27868;45.184;5.786;2022-08-19T02:20:56;2.53;;;1.55;;
42198;SDS011;27868;45.184;5.786;2022-08-19T02:23:41;3.15;;;1.42;;
42198;SDS011;27868;45.184;5.786;2022-08-19T02:26:26;3.90;;;1.83;;
42198;SDS011;27868;45.184;5.786;2022-08-19T02:29:10;2.40;;;1.90;;
42198;SDS011;27868;45.184;5.786;2022-08-19T02:31:55;5.20;;;1.58;;
42198;SDS011;27868;45.184;5.786;2022-08-19T02:34:40;5.40;;;1.83;;
42198;SDS011;27868;45.184;5.786;2022-08-19T02:37:25;5.63;;;1.60;;
42198;SDS011;27868;45.184;5.786;2022-08-19T02:40:31;2.60;;;1.60;;
42198;SDS011;27868;45.184;5.786;2022-08-19T02:43:20;3.63;;;1.85;;
42198;SDS011;27868;45.184;5.786;2022-08-19T02:49:19;4.53;;;1.83;;
42198;SDS011;27868;45.184;5.786;2022-08-19T02:52:04;5.55;;;2.50;;
42198;SDS011;27868;45.184;5.786;2022-08-19T02:54:48;2.70;;;1.80;;
42198;SDS011;27868;45.184;5.786;2022-08-19T02:57:33;5.63;;;1.88;;
42198;SDS011;27868;45.184;5.786;2022-08-19T03:00:18;2.28;;;1.75;;
42198;SDS011;27868;45.184;5.786;2022-08-19T03:03:03;4.28;;;1.85;;
42198;SDS011;27868;45.184;5.786;2022-08-19T03:05:47;4.82;;;1.80;;
42198;SDS011;27868;45.184;5.786;2022-08-19T03:08:31;7.68;;;1.90;;
42198;SDS011;27868;45.184;5.786;2022-08-19T03:11:17;5.43;;;2.00;;
42198;SDS011;27868;45.184;5.786;2022-08-19T03:14:10;4.00;;;2.15;;
42198;SDS011;27868;45.184;5.786;2022-08-19T03:16:56;3.83;;;2.17;;
42198;SDS011;27868;45.184;5.786;2022-08-19T03:19:41;4.60;;;2.10;;
42198;SDS011;27868;45.184;5.786;2022-08-19T03:22:27;7.20;;;2.17;;
42198;SDS011;27868;45.184;5.786;2022-08-19T03:25:12;2.88;;;1.83;;
42198;SDS011;27868;45.184;5.786;2022-08-19T03:27:57;2.75;;;1.67;;
42198;SDS011;27868;45.184;5.786;2022-08-19T03:30:42;5.40;;;1.90;;
42198;SDS011;27868;45.184;5.786;2022-08-19T03:33:40;5.35;;;1.92;;
42198;SDS011;27868;45.184;5.786;2022-08-19T03:36:26;5.13;;;1.73;;
42198;SDS011;27868;45.184;5.786;2022-08-19T03:39:11;3.72;;;1.50;;
42198;SDS011;27868;45.184;5.786;2022-08-19T03:41:56;3.97;;;1.50;;
42198;SDS011;27868;45.184;5.786;2022-08-19T03:44:43;2.47;;;1.50;;
42198;SDS011;27868;45.184;5.786;2022-08-19T03:47:28;2.72;;;1.70;;
42198;SDS011;27868;45.184;5.786;2022-08-19T03:50:14;3.00;;;1.65;;
42198;SDS011;27868;45.184;5.786;2022-08-19T03:53:00;4.53;;;1.70;;
42198;SDS011;27868;45.184;5.786;2022-08-19T03:55:45;4.50;;;1.75;;
42198;SDS011;27868;45.184;5.786;2022-08-19T03:58:30;2.50;;;1.77;;
42198;SDS011;27868;45.184;5.786;2022-08-19T04:01:15;2.75;;;1.70;;
42198;SDS011;27868;45.184;5.786;2022-08-19T04:04:03;2.75;;;1.75;;
42198;SDS011;27868;45.184;5.786;2022-08-19T04:06:48;2.75;;;1.80;;
42198;SDS011;27868;45.184;5.786;2022-08-19T04:09:35;5.55;;;1.40;;
42198;SDS011;27868;45.184;5.786;2022-08-19T04:12:20;3.35;;;1.50;;
42198;SDS011;27868;45.184;5.786;2022-08-19T04:15:05;3.75;;;1.55;;
42198;SDS011;27868;45.184;5.786;2022-08-19T04:17:50;2.63;;;1.30;;
42198;SDS011;27868;45.184;5.786;2022-08-19T04:20:42;6.90;;;1.60;;
42198;SDS011;27868;45.184;5.786;2022-08-19T04:23:28;5.45;;;1.80;;
42198;SDS011;27868;45.184;5.786;2022-08-19T04:26:15;3.95;;;1.90;;
42198;SDS011;27868;45.184;5.786;2022-08-19T04:29:04;8.02;;;2.50;;
42198;SDS011;27868;45.184;5.786;2022-08-19T04:31:52;5.95;;;1.80;;
42198;SDS011;27868;45.184;5.786;2022-08-19T04:34:38;2.75;;;1.80;;
42198;SDS011;27868;45.184;5.786;2022-08-19T04:37:23;4.55;;;1.80;;
42198;SDS011;27868;45.184;5.786;2022-08-19T04:40:08;4.50;;;1.92;;
42198;SDS011;27868;45.184;5.786;2022-08-19T04:43:13;3.22;;;1.85;;
42198;SDS011;27868;45.184;5.786;2022-08-19T04:46:03;5.18;;;2.20;;
42198;SDS011;27868;45.184;5.786;2022-08-19T04:48:49;3.88;;;2.03;;
42198;SDS011;27868;45.184;5.786;2022-08-19T04:51:34;2.88;;;2.10;;
42198;SDS011;27868;45.184;5.786;2022-08-19T04:54:19;4.85;;;2.08;;
42198;SDS011;27868;45.184;5.786;2022-08-19T04:57:07;5.18;;;1.83;;
42198;SDS011;27868;45.184;5.786;2022-08-19T04:59:54;6.03;;;2.00;;
42198;SDS011;27868;45.184;5.786;2022-08-19T05:02:39;3.45;;;1.88;;
42198;SDS011;27868;45.184;5.786;2022-08-19T05:05:24;4.25;;;2.10;;
42198;SDS011;27868;45.184;5.786;2022-08-19T05:08:08;4.63;;;1.90;;
42198;SDS011;27868;45.184;5.786;2022-08-19T05:10:53;2.88;;;1.92;;
42198;SDS011;27868;45.184;5.786;2022-08-19T05:13:38;6.13;;;2.20;;
42198;SDS011;27868;45.184;5.786;2022-08-19T05:16:24;5.45;;;2.28;;
42198;SDS011;27868;45.184;5.786;2022-08-19T05:19:10;3.85;;;1.88;;
42198;SDS011;27868;45.184;5.786;2022-08-19T05:22:13;3.95;;;2.13;;
42198;SDS011;27868;45.184;5.786;2022-08-19T05:25:17;4.05;;;1.80;;
42198;SDS011;27868;45.184;5.786;2022-08-19T05:28:04;4.03;;;2.00;;
42198;SDS011;27868;45.184;5.786;2022-08-19T05:30:48;2.80;;;1.77;;
42198;SDS011;27868;45.184;5.786;2022-08-19T05:33:34;4.53;;;1.58;;
42198;SDS011;27868;45.184;5.786;2022-08-19T05:36:19;2.95;;;1.58;;
42198;SDS011;27868;45.184;5.786;2022-08-19T05:39:04;2.83;;;1.67;;
42198;SDS011;27868;45.184;5.786;2022-08-19T05:41:57;3.90;;;1.75;;
42198;SDS011;27868;45.184;5.786;2022-08-19T05:44:44;16.38;;;2.03;;
42198;SDS011;27868;45.184;5.786;2022-08-19T05:47:29;2.00;;;1.60;;
42198;SDS011;27868;45.184;5.786;2022-08-19T05:50:13;3.45;;;1.60;;
42198;SDS011;27868;45.184;5.786;2022-08-19T05:52:58;5.07;;;1.75;;
42198;SDS011;27868;45.184;5.786;2022-08-19T05:55:43;5.78;;;2.05;;
42198;SDS011;27868;45.184;5.786;2022-08-19T05:58:27;3.88;;;1.40;;
42198;SDS011;27868;45.184;5.786;2022-08-19T06:01:13;3.67;;;1.50;;
42198;SDS011;27868;45.184;5.786;2022-08-19T06:04:00;4.18;;;1.60;;
42198;SDS011;27868;45.184;5.786;2022-08-19T06:06:46;5.10;;;2.08;;
42198;SDS011;27868;45.184;5.786;2022-08-19T06:09:31;6.05;;;1.70;;
42198;SDS011;27868;45.184;5.786;2022-08-19T06:12:16;2.85;;;1.60;;
42198;SDS011;27868;45.184;5.786;2022-08-19T06:15:02;3.80;;;2.20;;
42198;SDS011;27868;45.184;5.786;2022-08-19T06:17:57;3.92;;;2.10;;
42198;SDS011;27868;45.184;5.786;2022-08-19T06:20:42;5.60;;;2.40;;
42198;SDS011;27868;45.184;5.786;2022-08-19T06:23:26;14.68;;;3.17;;
42198;SDS011;27868;45.184;5.786;2022-08-19T06:26:11;3.22;;;2.20;;
42198;SDS011;27868;45.184;5.786;2022-08-19T06:28:57;2.42;;;2.03;;
42198;SDS011;27868;45.184;5.786;2022-08-19T06:31:42;4.28;;;2.20;;
42198;SDS011;27868;45.184;5.786;2022-08-19T06:34:29;3.05;;;2.20;;
42198;SDS011;27868;45.184;5.786;2022-08-19T06:37:16;3.08;;;2.20;;
42198;SDS011;27868;45.184;5.786;2022-08-19T06:40:00;2.95;;;2.13;;
42198;SDS011;27868;45.184;5.786;2022-08-19T06:42:44;2.92;;;1.90;;
42198;SDS011;27868;45.184;5.786;2022-08-19T06:45:29;2.67;;;1.88;;
42198;SDS011;27868;45.184;5.786;2022-08-19T06:48:14;3.40;;;1.95;;
42198;SDS011;27868;45.184;5.786;2022-08-19T06:50:58;3.53;;;1.85;;
42198;SDS011;27868;45.184;5.786;2022-08-19T06:53:43;3.70;;;2.35;;
42198;SDS011;27868;45.184;5.786;2022-08-19T06:56:31;3.30;;;2.22;;
42198;SDS011;27868;45.184;5.786;2022-08-19T06:59:21;6.88;;;2.90;;
42198;SDS011;27868;45.184;5.786;2022-08-19T07:02:11;5.55;;;2.35;;
42198;SDS011;27868;45.184;5.786;2022-08-19T07:04:55;6.32;;;2.10;;
42198;SDS011;27868;45.184;5.786;2022-08-19T07:07:42;3.40;;;1.73;;
42198;SDS011;27868;45.184;5.786;2022-08-19T07:10:26;2.35;;;2.08;;
42198;SDS011;27868;45.184;5.786;2022-08-19T07:13:11;2.67;;;2.17;;
42198;SDS011;27868;45.184;5.786;2022-08-19T07:15:56;7.05;;;2.55;;
42198;SDS011;27868;45.184;5.786;2022-08-19T07:18:41;2.67;;;2.05;;
42198;SDS011;27868;45.184;5.786;2022-08-19T07:21:26;3.42;;;1.92;;
42198;SDS011;27868;45.184;5.786;2022-08-19T07:24:12;3.22;;;2.33;;
42198;SDS011;27868;45.184;5.786;2022-08-19T07:26:58;2.80;;;2.00;;
42198;SDS011;27868;45.184;5.786;2022-08-19T07:29:46;4.87;;;2.10;;
42198;SDS011;27868;45.184;5.786;2022-08-19T07:32:31;2.35;;;1.85;;
42198;SDS011;27868;45.184;5.786;2022-08-19T07:35:16;5.10;;;2.38;;
42198;SDS011;27868;45.184;5.786;2022-08-19T07:38:03;2.65;;;2.25;;
42198;SDS011;27868;45.184;5.786;2022-08-19T07:40:48;3.33;;;2.20;;
42198;SDS011;27868;45.184;5.786;2022-08-19T07:43:32;4.90;;;2.40;;
42198;SDS011;27868;45.184;5.786;2022-08-19T07:46:17;2.78;;;2.28;;
42198;SDS011;27868;45.184;5.786;2022-08-19T07:49:04;6.07;;;2.30;;
42198;SDS011;27868;45.184;5.786;2022-08-19T07:51:57;3.50;;;2.28;;
42198;SDS011;27868;45.184;5.786;2022-08-19T07:54:45;3.80;;;2.35;;
42198;SDS011;27868;45.184;5.786;2022-08-19T07:57:30;3.58;;;2.50;;
42198;SDS011;27868;45.184;5.786;2022-08-19T08:00:14;3.75;;;2.10;;
42198;SDS011;27868;45.184;5.786;2022-08-19T08:02:59;5.13;;;1.90;;
42198;SDS011;27868;45.184;5.786;2022-08-19T08:05:44;2.88;;;2.15;;
42198;SDS011;27868;45.184;5.786;2022-08-19T08:08:48;3.28;;;2.20;;
42198;SDS011;27868;45.184;5.786;2022-08-19T08:11:33;3.22;;;1.90;;
42198;SDS011;27868;45.184;5.786;2022-08-19T08:14:29;2.42;;;1.83;;
42198;SDS011;27868;45.184;5.786;2022-08-19T08:17:16;4.25;;;2.25;;
42198;SDS011;27868;45.184;5.786;2022-08-19T08:20:04;3.97;;;2.45;;
42198;SDS011;27868;45.184;5.786;2022-08-19T08:22:50;2.50;;;2.08;;
42198;SDS011;27868;45.184;5.786;2022-08-19T08:25:55;4.47;;;2.25;;
42198;SDS011;27868;45.184;5.786;2022-08-19T08:28:41;2.25;;;2.00;;
42198;SDS011;27868;45.184;5.786;2022-08-19T08:31:26;5.07;;;1.90;;
42198;SDS011;27868;45.184;5.786;2022-08-19T08:34:13;4.05;;;2.10;;
42198;SDS011;27868;45.184;5.786;2022-08-19T08:36:58;2.55;;;1.85;;
42198;SDS011;27868;45.184;5.786;2022-08-19T08:39:42;2.45;;;2.10;;
42198;SDS011;27868;45.184;5.786;2022-08-19T08:42:29;3.67;;;2.10;;
42198;SDS011;27868;45.184;5.786;2022-08-19T08:45:19;3.65;;;1.92;;
42198;SDS011;27868;45.184;5.786;2022-08-19T08:48:15;2.50;;;1.90;;
42198;SDS011;27868;45.184;5.786;2022-08-19T08:51:07;2.40;;;2.10;;
42198;SDS011;27868;45.184;5.786;2022-08-19T08:53:56;2.70;;;1.80;;
42198;SDS011;27868;45.184;5.786;2022-08-19T08:56:41;2.53;;;2.13;;
42198;SDS011;27868;45.184;5.786;2022-08-19T08:59:33;4.32;;;2.00;;
42198;SDS011;27868;45.184;5.786;2022-08-19T09:02:22;2.45;;;1.92;;
42198;SDS011;27868;45.184;5.786;2022-08-19T09:05:10;3.83;;;2.17;;
42198;SDS011;27868;45.184;5.786;2022-08-19T09:10:53;2.53;;;2.00;;
42198;SDS011;27868;45.184;5.786;2022-08-19T09:16:33;2.88;;;2.08;;
42198;SDS011;27868;45.184;5.786;2022-08-19T09:19:18;2.90;;;1.98;;
42198;SDS011;27868;45.184;5.786;2022-08-19T09:22:03;5.47;;;2.65;;
42198;SDS011;27868;45.184;5.786;2022-08-19T09:24:49;3.00;;;1.90;;
42198;SDS011;27868;45.184;5.786;2022-08-19T09:27:36;3.00;;;1.80;;
42198;SDS011;27868;45.184;5.786;2022-08-19T09:30:27;2.47;;;1.88;;
42198;SDS011;27868;45.184;5.786;2022-08-19T09:33:12;2.40;;;2.20;;
42198;SDS011;27868;45.184;5.786;2022-08-19T09:36:05;3.85;;;1.88;;
42198;SDS011;27868;45.184;5.786;2022-08-19T09:38:52;2.40;;;1.90;;
42198;SDS011;27868;45.184;5.786;2022-08-19T09:41:37;2.13;;;1.90;;
42198;SDS011;27868;45.184;5.786;2022-08-19T09:44:21;2.33;;;2.10;;
42198;SDS011;27868;45.184;5.786;2022-08-19T09:47:06;3.65;;;2.15;;
42198;SDS011;27868;45.184;5.786;2022-08-19T09:49:53;2.72;;;1.88;;
42198;SDS011;27868;45.184;5.786;2022-08-19T09:52:38;5.22;;;2.08;;
42198;SDS011;27868;45.184;5.786;2022-08-19T09:55:24;5.20;;;2.00;;
42198;SDS011;27868;45.184;5.786;2022-08-19T09:58:09;3.05;;;2.40;;
42198;SDS011;27868;45.184;5.786;2022-08-19T10:00:55;5.82;;;2.13;;
42198;SDS011;27868;45.184;5.786;2022-08-19T10:03:40;3.13;;;2.00;;
42198;SDS011;27868;45.184;5.786;2022-08-19T10:06:26;2.80;;;1.85;;
42198;SDS011;27868;45.184;5.786;2022-08-19T10:09:17;3.53;;;1.92;;
42198;SDS011;27868;45.184;5.786;2022-08-19T10:12:03;3.13;;;1.90;;
42198;SDS011;27868;45.184;5.786;2022-08-19T10:14:48;3.35;;;1.90;;
42198;SDS011;27868;45.184;5.786;2022-08-19T10:17:34;3.97;;;1.80;;
42198;SDS011;27868;45.184;5.786;2022-08-19T10:20:19;5.82;;;2.20;;
42198;SDS011;27868;45.184;5.786;2022-08-19T10:23:04;4.70;;;2.40;;
42198;SDS011;27868;45.184;5.786;2022-08-19T10:25:48;7.15;;;2.20;;
42198;SDS011;27868;45.184;5.786;2022-08-19T10:28:34;2.22;;;2.00;;
42198;SDS011;27868;45.184;5.786;2022-08-19T10:31:27;2.83;;;2.35;;
42198;SDS011;27868;45.184;5.786;2022-08-19T10:34:13;3.75;;;2.00;;
42198;SDS011;27868;45.184;5.786;2022-08-19T10:36:58;3.15;;;2.08;;
42198;SDS011;27868;45.184;5.786;2022-08-19T10:39:45;2.60;;;2.10;;
42198;SDS011;27868;45.184;5.786;2022-08-19T10:42:31;2.53;;;2.20;;
42198;SDS011;27868;45.184;5.786;2022-08-19T10:45:16;5.25;;;2.08;;
42198;SDS011;27868;45.184;5.786;2022-08-19T10:48:01;2.72;;;2.25;;
42198;SDS011;27868;45.184;5.786;2022-08-19T10:50:46;3.15;;;2.55;;
42198;SDS011;27868;45.184;5.786;2022-08-19T10:53:50;3.13;;;2.28;;
42198;SDS011;27868;45.184;5.786;2022-08-19T10:56:35;2.45;;;2.03;;
42198;SDS011;27868;45.184;5.786;2022-08-19T10:59:35;2.63;;;2.17;;
42198;SDS011;27868;45.184;5.786;2022-08-19T11:02:20;2.63;;;2.20;;
42198;SDS011;27868;45.184;5.786;2022-08-19T11:05:05;4.78;;;2.08;;
42198;SDS011;27868;45.184;5.786;2022-08-19T11:07:51;4.88;;;2.10;;
42198;SDS011;27868;45.184;5.786;2022-08-19T11:10:35;3.10;;;2.30;;
42198;SDS011;27868;45.184;5.786;2022-08-19T11:13:20;3.80;;;2.67;;
42198;SDS011;27868;45.184;5.786;2022-08-19T11:16:09;3.40;;;2.30;;
42198;SDS011;27868;45.184;5.786;2022-08-19T11:18:58;3.83;;;2.80;;
42198;SDS011;27868;45.184;5.786;2022-08-19T11:21:44;3.08;;;2.33;;
42198;SDS011;27868;45.184;5.786;2022-08-19T11:24:31;3.33;;;2.22;;
42198;SDS011;27868;45.184;5.786;2022-08-19T11:27:16;5.85;;;2.65;;
42198;SDS011;27868;45.184;5.786;2022-08-19T11:30:01;3.42;;;2.78;;
42198;SDS011;27868;45.184;5.786;2022-08-19T11:32:48;3.25;;;2.72;;
42198;SDS011;27868;45.184;5.786;2022-08-19T11:35:33;2.92;;;2.38;;
42198;SDS011;27868;45.184;5.786;2022-08-19T11:38:18;2.58;;;2.35;;
42198;SDS011;27868;45.184;5.786;2022-08-19T11:41:04;4.75;;;2.67;;
42198;SDS011;27868;45.184;5.786;2022-08-19T11:43:51;4.13;;;2.70;;
42198;SDS011;27868;45.184;5.786;2022-08-19T11:46:40;4.22;;;2.90;;
42198;SDS011;27868;45.184;5.786;2022-08-19T11:52:13;3.65;;;2.53;;
42198;SDS011;27868;45.184;5.786;2022-08-19T11:54:58;3.72;;;2.88;;
42198;SDS011;27868;45.184;5.786;2022-08-19T11:57:43;3.13;;;2.80;;
42198;SDS011;27868;45.184;5.786;2022-08-19T12:00:27;3.13;;;2.55;;
42198;SDS011;27868;45.184;5.786;2022-08-19T12:03:12;3.40;;;2.50;;
42198;SDS011;27868;45.184;5.786;2022-08-19T12:05:57;4.55;;;2.80;;
42198;SDS011;27868;45.184;5.786;2022-08-19T12:08:42;3.95;;;2.95;;
42198;SDS011;27868;45.184;5.786;2022-08-19T12:11:28;3.85;;;2.60;;
42198;SDS011;27868;45.184;5.786;2022-08-19T12:14:13;3.40;;;3.08;;
42198;SDS011;27868;45.184;5.786;2022-08-19T12:16:58;3.35;;;3.00;;
42198;SDS011;27868;45.184;5.786;2022-08-19T12:19:43;5.60;;;3.47;;
42198;SDS011;27868;45.184;5.786;2022-08-19T12:22:28;4.95;;;3.10;;
42198;SDS011;27868;45.184;5.786;2022-08-19T12:25:12;2.85;;;2.63;;
42198;SDS011;27868;45.184;5.786;2022-08-19T12:27:57;5.60;;;3.50;;
42198;SDS011;27868;45.184;5.786;2022-08-19T12:30:42;6.55;;;3.58;;
42198;SDS011;27868;45.184;5.786;2022-08-19T12:33:27;3.67;;;2.85;;
42198;SDS011;27868;45.184;5.786;2022-08-19T12:36:13;3.10;;;2.63;;
42198;SDS011;27868;45.184;5.786;2022-08-19T12:38:59;3.63;;;2.70;;
42198;SDS011;27868;45.184;5.786;2022-08-19T12:41:43;8.15;;;2.90;;
42198;SDS011;27868;45.184;5.786;2022-08-19T12:44:28;4.57;;;2.90;;
42198;SDS011;27868;45.184;5.786;2022-08-19T12:47:14;4.45;;;2.97;;
42198;SDS011;27868;45.184;5.786;2022-08-19T12:49:59;3.90;;;3.03;;
42198;SDS011;27868;45.184;5.786;2022-08-19T12:52:43;3.47;;;2.92;;
42198;SDS011;27868;45.184;5.786;2022-08-19T12:55:29;3.38;;;2.72;;
42198;SDS011;27868;45.184;5.786;2022-08-19T12:58:14;3.38;;;2.80;;
42198;SDS011;27868;45.184;5.786;2022-08-19T13:00:58;3.80;;;2.80;;
42198;SDS011;27868;45.184;5.786;2022-08-19T13:03:44;5.30;;;3.30;;
42198;SDS011;27868;45.184;5.786;2022-08-19T13:06:30;3.88;;;3.45;;
42198;SDS011;27868;45.184;5.786;2022-08-19T13:09:14;6.13;;;3.42;;
42198;SDS011;27868;45.184;5.786;2022-08-19T13:11:59;4.55;;;3.88;;
42198;SDS011;27868;45.184;5.786;2022-08-19T13:14:51;5.28;;;3.60;;
42198;SDS011;27868;45.184;5.786;2022-08-19T13:17:36;3.92;;;3.45;;
42198;SDS011;27868;45.184;5.786;2022-08-19T13:20:21;3.72;;;3.33;;
42198;SDS011;27868;45.184;5.786;2022-08-19T13:23:06;5.22;;;4.15;;
42198;SDS011;27868;45.184;5.786;2022-08-19T13:25:58;5.93;;;4.00;;
42198;SDS011;27868;45.184;5.786;2022-08-19T13:28:45;4.85;;;4.20;;
42198;SDS011;27868;45.184;5.786;2022-08-19T13:31:48;4.63;;;3.85;;
42198;SDS011;27868;45.184;5.786;2022-08-19T13:34:52;4.60;;;3.92;;
42198;SDS011;27868;45.184;5.786;2022-08-19T13:37:36;5.18;;;3.92;;
42198;SDS011;27868;45.184;5.786;2022-08-19T13:40:27;5.25;;;4.45;;
42198;SDS011;27868;45.184;5.786;2022-08-19T13:43:13;6.43;;;4.85;;
42198;SDS011;27868;45.184;5.786;2022-08-19T13:45:58;8.93;;;5.25;;
42198;SDS011;27868;45.184;5.786;2022-08-19T13:48:42;7.30;;;5.85;;
42198;SDS011;27868;45.184;5.786;2022-08-19T13:51:27;6.22;;;5.50;;
42198;SDS011;27868;45.184;5.786;2022-08-19T13:54:12;7.88;;;4.95;;
42198;SDS011;27868;45.184;5.786;2022-08-19T13:56:57;9.52;;;5.70;;
42198;SDS011;27868;45.184;5.786;2022-08-19T13:59:41;8.70;;;5.85;;
42198;SDS011;27868;45.184;5.786;2022-08-19T14:02:26;9.90;;;6.13;;
42198;SDS011;27868;45.184;5.786;2022-08-19T14:05:11;8.52;;;6.50;;
42198;SDS011;27868;45.184;5.786;2022-08-19T14:07:58;6.80;;;5.88;;
42198;SDS011;27868;45.184;5.786;2022-08-19T14:10:43;10.23;;;6.35;;
42198;SDS011;27868;45.184;5.786;2022-08-19T14:13:29;7.85;;;6.18;;
42198;SDS011;27868;45.184;5.786;2022-08-19T14:16:14;9.43;;;6.05;;
42198;SDS011;27868;45.184;5.786;2022-08-19T14:18:59;7.55;;;5.97;;
42198;SDS011;27868;45.184;5.786;2022-08-19T14:21:43;8.68;;;6.30;;
42198;SDS011;27868;45.184;5.786;2022-08-19T14:24:28;7.75;;;6.20;;
42198;SDS011;27868;45.184;5.786;2022-08-19T14:27:12;6.65;;;5.93;;
42198;SDS011;27868;45.184;5.786;2022-08-19T14:29:57;6.22;;;5.13;;
42198;SDS011;27868;45.184;5.786;2022-08-19T14:32:41;7.00;;;5.80;;
42198;SDS011;27868;45.184;5.786;2022-08-19T14:35:28;6.95;;;5.47;;
42198;SDS011;27868;45.184;5.786;2022-08-19T14:38:15;6.22;;;4.90;;
42198;SDS011;27868;45.184;5.786;2022-08-19T14:41:12;6.72;;;5.40;;
42198;SDS011;27868;45.184;5.786;2022-08-19T14:44:02;7.45;;;5.50;;
42198;SDS011;27868;45.184;5.786;2022-08-19T14:46:47;7.25;;;5.00;;
42198;SDS011;27868;45.184;5.786;2022-08-19T14:49:31;6.10;;;4.93;;
42198;SDS011;27868;45.184;5.786;2022-08-19T14:52:16;7.20;;;4.95;;
42198;SDS011;27868;45.184;5.786;2022-08-19T14:55:01;8.32;;;5.18;;
42198;SDS011;27868;45.184;5.786;2022-08-19T14:57:47;6.25;;;5.22;;
42198;SDS011;27868;45.184;5.786;2022-08-19T15:00:31;7.05;;;5.35;;
42198;SDS011;27868;45.184;5.786;2022-08-19T15:03:16;6.50;;;5.22;;
42198;SDS011;27868;45.184;5.786;2022-08-19T15:06:02;7.82;;;5.82;;
42198;SDS011;27868;45.184;5.786;2022-08-19T15:08:48;6.25;;;5.53;;
42198;SDS011;27868;45.184;5.786;2022-08-19T15:11:36;8.35;;;5.55;;
42198;SDS011;27868;45.184;5.786;2022-08-19T15:14:22;6.47;;;5.57;;
42198;SDS011;27868;45.184;5.786;2022-08-19T15:17:06;6.60;;;5.63;;
42198;SDS011;27868;45.184;5.786;2022-08-19T15:19:51;6.25;;;5.22;;
42198;SDS011;27868;45.184;5.786;2022-08-19T15:22:36;8.18;;;5.78;;
42198;SDS011;27868;45.184;5.786;2022-08-19T15:25:21;8.20;;;5.90;;
42198;SDS011;27868;45.184;5.786;2022-08-19T15:28:05;7.45;;;5.75;;
42198;SDS011;27868;45.184;5.786;2022-08-19T15:30:50;9.13;;;5.50;;
42198;SDS011;27868;45.184;5.786;2022-08-19T15:33:35;7.15;;;5.63;;
42198;SDS011;27868;45.184;5.786;2022-08-19T15:36:20;8.85;;;5.82;;
42198;SDS011;27868;45.184;5.786;2022-08-19T15:39:05;7.15;;;5.53;;
42198;SDS011;27868;45.184;5.786;2022-08-19T15:41:50;8.63;;;5.32;;
42198;SDS011;27868;45.184;5.786;2022-08-19T15:44:35;9.75;;;6.32;;
42198;SDS011;27868;45.184;5.786;2022-08-19T15:47:20;8.48;;;5.72;;
42198;SDS011;27868;45.184;5.786;2022-08-19T15:50:08;8.60;;;5.40;;
42198;SDS011;27868;45.184;5.786;2022-08-19T15:53:14;8.18;;;5.57;;
42198;SDS011;27868;45.184;5.786;2022-08-19T15:55:59;8.52;;;5.50;;
42198;SDS011;27868;45.184;5.786;2022-08-19T15:58:43;7.05;;;5.57;;
42198;SDS011;27868;45.184;5.786;2022-08-19T16:01:47;9.90;;;5.68;;
42198;SDS011;27868;45.184;5.786;2022-08-19T16:04:50;6.93;;;5.90;;
42198;SDS011;27868;45.184;5.786;2022-08-19T16:07:54;7.60;;;5.93;;
42198;SDS011;27868;45.184;5.786;2022-08-19T16:10:39;7.22;;;5.88;;
42198;SDS011;27868;45.184;5.786;2022-08-19T16:13:24;7.25;;;6.03;;
42198;SDS011;27868;45.184;5.786;2022-08-19T16:16:08;8.55;;;6.32;;
42198;SDS011;27868;45.184;5.786;2022-08-19T16:18:56;7.40;;;5.32;;
42198;SDS011;27868;45.184;5.786;2022-08-19T16:21:44;7.28;;;5.43;;
42198;SDS011;27868;45.184;5.786;2022-08-19T16:24:31;6.22;;;4.93;;
42198;SDS011;27868;45.184;5.786;2022-08-19T16:27:16;7.25;;;5.55;;
42198;SDS011;27868;45.184;5.786;2022-08-19T16:30:02;5.43;;;4.85;;
42198;SDS011;27868;45.184;5.786;2022-08-19T16:32:47;7.13;;;5.03;;
42198;SDS011;27868;45.184;5.786;2022-08-19T16:35:31;6.65;;;5.03;;
42198;SDS011;27868;45.184;5.786;2022-08-19T16:38:17;7.05;;;5.35;;
42198;SDS011;27868;45.184;5.786;2022-08-19T16:41:02;6.63;;;4.97;;
42198;SDS011;27868;45.184;5.786;2022-08-19T16:43:47;6.88;;;5.05;;
42198;SDS011;27868;45.184;5.786;2022-08-19T16:46:35;6.03;;;5.00;;
42198;SDS011;27868;45.184;5.786;2022-08-19T16:49:20;8.35;;;4.72;;
42198;SDS011;27868;45.184;5.786;2022-08-19T16:52:08;6.53;;;5.00;;
42198;SDS011;27868;45.184;5.786;2022-08-19T16:54:53;6.65;;;4.50;;
42198;SDS011;27868;45.184;5.786;2022-08-19T16:57:37;7.35;;;4.60;;